sensor_id;sensor_type;location;lat;lon;timestamp;temperature;humidity
21551;DHT22;10936;49.836;7.078;2022-10-18T05:02:30;21.40;99.90
21551;DHT22;10936;49.836;7.078;2022-10-18T05:04:55;21.40;99.90
21551;DHT22;10936;49.836;7.078;2022-10-18T05:07:21;21.40;99.90
21551;DHT22;10936;49.836;7.078;2022-10-18T05:09:47;21.40;99.90
21551;DHT22;10936;49.836;7.078;2022-10-18T05:12:12;21.40;99.90
21551;DHT22;10936;49.836;7.078;2022-10-18T05:14:38;21.40;99.90
21551;DHT22;10936;49.836;7.078;2022-10-18T05:17:03;21.40;99.90
21551;DHT22;10936;49.836;7.078;2022-10-18T05:19:29;21.40;99.90
21551;DHT22;10936;49.836;7.078;2022-10-18T05:21:55;21.40;99.90
21551;DHT22;10936;49.836;7.078;2022-10-18T05:24:20;21.30;99.90
21551;DHT22;10936;49.836;7.078;2022-10-18T05:26:46;21.40;99.90
21551;DHT22;10936;49.836;7.078;2022-10-18T05:29:11;21.40;99.90
21551;DHT22;10936;49.836;7.078;2022-10-18T05:31:37;21.40;99.90
21551;DHT22;10936;49.836;7.078;2022-10-18T05:34:03;21.40;99.90
21551;DHT22;10936;49.836;7.078;2022-10-18T05:36:28;21.40;99.90
21551;DHT22;10936;49.836;7.078;2022-10-18T05:38:54;21.40;99.90
21551;DHT22;10936;49.836;7.078;2022-10-18T05:41:21;21.40;99.90
21551;DHT22;10936;49.836;7.078;2022-10-18T05:43:46;21.40;99.90
21551;DHT22;10936;49.836;7.078;2022-10-18T05:46:12;21.40;99.90
21551;DHT22;10936;49.836;7.078;2022-10-18T05:48:38;21.40;99.90
21551;DHT22;10936;49.836;7.078;2022-10-18T05:51:04;21.40;99.90
21551;DHT22;10936;49.836;7.078;2022-10-18T05:53:30;21.40;99.90
21551;DHT22;10936;49.836;7.078;2022-10-18T05:55:59;21.40;99.90
21551;DHT22;10936;49.836;7.078;2022-10-18T05:58:25;21.40;99.90
21551;DHT22;10936;49.836;7.078;2022-10-18T06:00:51;21.40;99.90
21551;DHT22;10936;49.836;7.078;2022-10-18T06:03:17;21.40;99.90
21551;DHT22;10936;49.836;7.078;2022-10-18T06:05:42;21.40;99.90
21551;DHT22;10936;49.836;7.078;2022-10-18T06:08:08;21.40;99.90
21551;DHT22;10936;49.836;7.078;2022-10-18T06:10:34;21.40;99.90
21551;DHT22;10936;49.836;7.078;2022-10-18T06:12:59;21.40;99.90
21551;DHT22;10936;49.836;7.078;2022-10-18T06:15:25;21.40;99.90
21551;DHT22;10936;49.836;7.078;2022-10-18T06:17:51;21.40;99.90
21551;DHT22;10936;49.836;7.078;2022-10-18T06:20:16;21.40;99.90
21551;DHT22;10936;49.836;7.078;2022-10-18T06:22:42;21.40;99.90
21551;DHT22;10936;49.836;7.078;2022-10-18T06:25:08;21.40;99.90
21551;DHT22;10936;49.836;7.078;2022-10-18T06:27:34;21.40;99.90
21551;DHT22;10936;49.836;7.078;2022-10-18T06:29:59;21.40;99.90
21551;DHT22;10936;49.836;7.078;2022-10-18T06:32:25;21.40;99.90
21551;DHT22;10936;49.836;7.078;2022-10-18T06:34:51;21.40;99.90
21551;DHT22;10936;49.836;7.078;2022-10-18T06:37:16;21.40;99.90
21551;DHT22;10936;49.836;7.078;2022-10-18T06:39:42;21.40;99.90
21551;DHT22;10936;49.836;7.078;2022-10-18T06:42:07;21.40;99.90
21551;DHT22;10936;49.836;7.078;2022-10-18T06:44:33;21.40;99.90
21551;DHT22;10936;49.836;7.078;2022-10-18T06:46:58;21.40;99.90
21551;DHT22;10936;49.836;7.078;2022-10-18T06:49:24;21.40;99.90
21551;DHT22;10936;49.836;7.078;2022-10-18T06:51:50;21.40;99.90
21551;DHT22;10936;49.836;7.078;2022-10-18T06:54:17;21.40;99.90
21551;DHT22;10936;49.836;7.078;2022-10-18T06:56:43;21.40;99.90
21551;DHT22;10936;49.836;7.078;2022-10-18T06:59:09;21.40;99.90
21551;DHT22;10936;49.836;7.078;2022-10-18T07:01:34;21.40;99.90
21551;DHT22;10936;49.836;7.078;2022-10-18T07:04:00;21.40;99.90
21551;DHT22;10936;49.836;7.078;2022-10-18T07:06:26;21.40;99.90
21551;DHT22;10936;49.836;7.078;2022-10-18T07:08:51;21.40;99.90
21551;DHT22;10936;49.836;7.078;2022-10-18T07:11:21;21.40;99.90
21551;DHT22;10936;49.836;7.078;2022-10-18T07:13:48;21.40;99.90
21551;DHT22;10936;49.836;7.078;2022-10-18T07:16:16;21.40;99.90
21551;DHT22;10936;49.836;7.078;2022-10-18T07:18:44;21.40;99.90
21551;DHT22;10936;49.836;7.078;2022-10-18T07:21:15;21.40;99.90
21551;DHT22;10936;49.836;7.078;2022-10-18T07:23:42;21.40;99.90
21551;DHT22;10936;49.836;7.078;2022-10-18T07:28:46;21.40;99.90
21551;DHT22;10936;49.836;7.078;2022-10-18T07:31:13;21.40;99.90
21551;DHT22;10936;49.836;7.078;2022-10-18T07:33:39;21.40;99.90
21551;DHT22;10936;49.836;7.078;2022-10-18T07:36:08;21.40;99.90
21551;DHT22;10936;49.836;7.078;2022-10-18T07:38:34;21.40;99.90
21551;DHT22;10936;49.836;7.078;2022-10-18T07:41:02;21.40;99.90
21551;DHT22;10936;49.836;7.078;2022-10-18T07:43:29;21.40;99.90
21551;DHT22;10936;49.836;7.078;2022-10-18T07:45:57;21.40;99.90
21551;DHT22;10936;49.836;7.078;2022-10-18T07:48:23;21.40;99.90
21551;DHT22;10936;49.836;7.078;2022-10-18T07:50:49;21.40;99.90
21551;DHT22;10936;49.836;7.078;2022-10-18T07:53:14;21.40;99.90
21551;DHT22;10936;49.836;7.078;2022-10-18T07:55:40;21.40;99.90
21551;DHT22;10936;49.836;7.078;2022-10-18T07:58:06;21.40;99.90
21551;DHT22;10936;49.836;7.078;2022-10-18T08:00:31;21.40;99.90
21551;DHT22;10936;49.836;7.078;2022-10-18T08:02:58;21.40;99.90
21551;DHT22;10936;49.836;7.078;2022-10-18T08:05:25;21.40;99.90
21551;DHT22;10936;49.836;7.078;2022-10-18T08:07:52;21.30;99.90
21551;DHT22;10936;49.836;7.078;2022-10-18T08:10:18;21.40;99.90
21551;DHT22;10936;49.836;7.078;2022-10-18T08:12:44;21.40;99.90
21551;DHT22;10936;49.836;7.078;2022-10-18T08:15:10;21.40;99.90
21551;DHT22;10936;49.836;7.078;2022-10-18T08:17:36;21.40;99.90
21551;DHT22;10936;49.836;7.078;2022-10-18T08:20:02;21.40;99.90
21551;DHT22;10936;49.836;7.078;2022-10-18T08:22:28;21.40;99.90
21551;DHT22;10936;49.836;7.078;2022-10-18T08:24:54;21.40;99.90
21551;DHT22;10936;49.836;7.078;2022-10-18T08:27:19;21.40;99.90
21551;DHT22;10936;49.836;7.078;2022-10-18T08:29:45;21.40;99.90
21551;DHT22;10936;49.836;7.078;2022-10-18T08:32:11;21.40;99.90
21551;DHT22;10936;49.836;7.078;2022-10-18T08:34:37;21.40;99.90
21551;DHT22;10936;49.836;7.078;2022-10-18T08:37:03;21.30;99.90
21551;DHT22;10936;49.836;7.078;2022-10-18T08:39:28;21.40;99.90
21551;DHT22;10936;49.836;7.078;2022-10-18T08:42:13;21.40;99.90
21551;DHT22;10936;49.836;7.078;2022-10-18T08:44:45;21.40;99.90
21551;DHT22;10936;49.836;7.078;2022-10-18T08:47:20;21.40;99.90
21551;DHT22;10936;49.836;7.078;2022-10-18T08:49:50;21.40;99.90
21551;DHT22;10936;49.836;7.078;2022-10-18T08:52:27;21.40;99.90
21551;DHT22;10936;49.836;7.078;2022-10-18T08:55:00;21.40;99.90
21551;DHT22;10936;49.836;7.078;2022-10-18T08:57:27;21.40;99.90
21551;DHT22;10936;49.836;7.078;2022-10-18T08:59:53;21.40;99.90
21551;DHT22;10936;49.836;7.078;2022-10-18T09:02:40;21.40;99.90
21551;DHT22;10936;49.836;7.078;2022-10-18T09:08:19;21.40;99.90
21551;DHT22;10936;49.836;7.078;2022-10-18T09:14:01;21.40;99.90
21551;DHT22;10936;49.836;7.078;2022-10-18T09:17:10;21.40;99.90
21551;DHT22;10936;49.836;7.078;2022-10-18T09:23:09;21.40;99.90
21551;DHT22;10936;49.836;7.078;2022-10-18T09:26:05;21.50;99.90
21551;DHT22;10936;49.836;7.078;2022-10-18T09:28:24;21.50;99.90
21551;DHT22;10936;49.836;7.078;2022-10-18T09:36:42;21.50;99.90
21551;DHT22;10936;49.836;7.078;2022-10-18T09:38:56;21.60;99.90
21551;DHT22;10936;49.836;7.078;2022-10-18T09:41:29;21.50;99.90
21551;DHT22;10936;49.836;7.078;2022-10-18T09:44:22;21.60;99.90
21551;DHT22;10936;49.836;7.078;2022-10-18T09:46:50;21.60;99.90
21551;DHT22;10936;49.836;7.078;2022-10-18T09:49:20;21.60;99.90
21551;DHT22;10936;49.836;7.078;2022-10-18T09:51:47;21.60;99.90
21551;DHT22;10936;49.836;7.078;2022-10-18T09:57:20;21.60;99.90
21551;DHT22;10936;49.836;7.078;2022-10-18T09:59:48;21.60;99.90
21551;DHT22;10936;49.836;7.078;2022-10-18T10:02:19;21.60;99.90
21551;DHT22;10936;49.836;7.078;2022-10-18T10:04:51;21.60;99.90
21551;DHT22;10936;49.836;7.078;2022-10-18T10:07:28;21.60;99.90
21551;DHT22;10936;49.836;7.078;2022-10-18T10:10:05;21.60;99.90
21551;DHT22;10936;49.836;7.078;2022-10-18T10:12:37;21.60;99.90
21551;DHT22;10936;49.836;7.078;2022-10-18T10:15:23;21.70;99.90
21551;DHT22;10936;49.836;7.078;2022-10-18T10:18:02;21.70;99.90
21551;DHT22;10936;49.836;7.078;2022-10-18T10:20:35;21.70;99.90
21551;DHT22;10936;49.836;7.078;2022-10-18T10:23:21;21.70;99.90
21551;DHT22;10936;49.836;7.078;2022-10-18T10:25:56;21.70;99.90
21551;DHT22;10936;49.836;7.078;2022-10-18T10:28:28;21.70;99.90
21551;DHT22;10936;49.836;7.078;2022-10-18T10:36:25;21.70;99.90
21551;DHT22;10936;49.836;7.078;2022-10-18T10:41:31;21.70;99.90
21551;DHT22;10936;49.836;7.078;2022-10-18T10:44:00;21.70;99.90
21551;DHT22;10936;49.836;7.078;2022-10-18T10:46:33;21.70;99.90
21551;DHT22;10936;49.836;7.078;2022-10-18T10:48:59;21.70;99.90
21551;DHT22;10936;49.836;7.078;2022-10-18T10:51:32;21.70;99.90
21551;DHT22;10936;49.836;7.078;2022-10-18T10:54:15;21.70;99.90
21551;DHT22;10936;49.836;7.078;2022-10-18T10:59:31;21.80;99.90
21551;DHT22;10936;49.836;7.078;2022-10-18T11:04:44;21.80;99.90
21551;DHT22;10936;49.836;7.078;2022-10-18T11:10:24;21.80;99.90
21551;DHT22;10936;49.836;7.078;2022-10-18T11:15:44;21.80;99.90
21551;DHT22;10936;49.836;7.078;2022-10-18T11:18:23;21.80;99.90
21551;DHT22;10936;49.836;7.078;2022-10-18T11:21:09;21.90;99.90
21551;DHT22;10936;49.836;7.078;2022-10-18T11:23:38;21.90;99.90
21551;DHT22;10936;49.836;7.078;2022-10-18T11:29:37;21.90;99.90
21551;DHT22;10936;49.836;7.078;2022-10-18T11:36:50;21.90;99.90
21551;DHT22;10936;49.836;7.078;2022-10-18T11:42:08;21.90;99.90
21551;DHT22;10936;49.836;7.078;2022-10-18T11:47:40;21.90;99.90
21551;DHT22;10936;49.836;7.078;2022-10-18T11:50:27;21.90;99.90
21551;DHT22;10936;49.836;7.078;2022-10-18T11:53:20;21.90;99.90
21551;DHT22;10936;49.836;7.078;2022-10-18T11:56:11;21.90;99.90
21551;DHT22;10936;49.836;7.078;2022-10-18T12:04:15;21.90;99.90
21551;DHT22;10936;49.836;7.078;2022-10-18T12:06:43;21.90;99.90
21551;DHT22;10936;49.836;7.078;2022-10-18T12:09:30;21.90;99.90
21551;DHT22;10936;49.836;7.078;2022-10-18T12:12:30;21.90;99.90
21551;DHT22;10936;49.836;7.078;2022-10-18T12:15:06;21.90;99.90
21551;DHT22;10936;49.836;7.078;2022-10-18T12:17:40;21.90;99.90
21551;DHT22;10936;49.836;7.078;2022-10-18T12:20:28;21.90;99.90
21551;DHT22;10936;49.836;7.078;2022-10-18T12:23:03;22.00;99.90
21551;DHT22;10936;49.836;7.078;2022-10-18T12:25:33;22.00;99.90
21551;DHT22;10936;49.836;7.078;2022-10-18T12:33:35;22.00;99.90
21551;DHT22;10936;49.836;7.078;2022-10-18T12:39:00;22.00;99.90
21551;DHT22;10936;49.836;7.078;2022-10-18T12:41:29;22.00;99.90
21551;DHT22;10936;49.836;7.078;2022-10-18T12:44:03;22.00;99.90
21551;DHT22;10936;49.836;7.078;2022-10-18T12:46:50;22.00;99.90
21551;DHT22;10936;49.836;7.078;2022-10-18T12:49:29;22.00;99.90
21551;DHT22;10936;49.836;7.078;2022-10-18T12:51:58;22.00;99.90
21551;DHT22;10936;49.836;7.078;2022-10-18T12:54:36;22.00;99.90
21551;DHT22;10936;49.836;7.078;2022-10-18T12:57:16;22.00;99.90
21551;DHT22;10936;49.836;7.078;2022-10-18T12:59:47;22.00;99.90
21551;DHT22;10936;49.836;7.078;2022-10-18T13:02:21;22.00;99.90
21551;DHT22;10936;49.836;7.078;2022-10-18T13:04:48;22.00;99.90
21551;DHT22;10936;49.836;7.078;2022-10-18T13:07:20;22.00;99.90
21551;DHT22;10936;49.836;7.078;2022-10-18T13:13:04;22.00;99.90
21551;DHT22;10936;49.836;7.078;2022-10-18T13:15:44;22.00;99.90
21551;DHT22;10936;49.836;7.078;2022-10-18T13:24:17;22.00;99.90
21551;DHT22;10936;49.836;7.078;2022-10-18T13:27:00;22.00;99.90
21551;DHT22;10936;49.836;7.078;2022-10-18T13:34:43;22.00;99.90
21551;DHT22;10936;49.836;7.078;2022-10-18T13:39:35;22.00;99.90
21551;DHT22;10936;49.836;7.078;2022-10-18T13:44:32;22.00;99.90
21551;DHT22;10936;49.836;7.078;2022-10-18T13:58:40;22.10;99.90
21551;DHT22;10936;49.836;7.078;2022-10-18T14:01:31;22.10;99.90
21551;DHT22;10936;49.836;7.078;2022-10-18T14:06:47;22.10;99.90
21551;DHT22;10936;49.836;7.078;2022-10-18T14:09:23;22.10;99.90
21551;DHT22;10936;49.836;7.078;2022-10-18T14:11:59;22.10;99.90
21551;DHT22;10936;49.836;7.078;2022-10-18T14:17:33;22.10;99.90
21551;DHT22;10936;49.836;7.078;2022-10-18T14:23:15;22.10;99.90
21551;DHT22;10936;49.836;7.078;2022-10-18T14:25:42;22.10;99.90
21551;DHT22;10936;49.836;7.078;2022-10-18T14:28:11;22.10;99.90
21551;DHT22;10936;49.836;7.078;2022-10-18T14:33:32;22.10;99.90
21551;DHT22;10936;49.836;7.078;2022-10-18T14:36:00;22.10;99.90
21551;DHT22;10936;49.836;7.078;2022-10-18T14:38:27;22.10;99.90
21551;DHT22;10936;49.836;7.078;2022-10-18T14:41:12;22.20;99.90
21551;DHT22;10936;49.836;7.078;2022-10-18T14:43:39;22.20;99.90
21551;DHT22;10936;49.836;7.078;2022-10-18T14:46:14;22.20;99.90
21551;DHT22;10936;49.836;7.078;2022-10-18T14:48:40;22.20;99.90
21551;DHT22;10936;49.836;7.078;2022-10-18T14:51:09;22.20;99.90
21551;DHT22;10936;49.836;7.078;2022-10-18T14:53:37;22.20;99.90
21551;DHT22;10936;49.836;7.078;2022-10-18T14:56:04;22.20;99.90
21551;DHT22;10936;49.836;7.078;2022-10-18T14:58:34;22.20;99.90
21551;DHT22;10936;49.836;7.078;2022-10-18T15:01:00;22.20;99.90
21551;DHT22;10936;49.836;7.078;2022-10-18T15:03:26;22.20;99.90
21551;DHT22;10936;49.836;7.078;2022-10-18T15:05:58;22.20;99.90
21551;DHT22;10936;49.836;7.078;2022-10-18T15:08:31;22.20;99.90
21551;DHT22;10936;49.836;7.078;2022-10-18T15:10:59;22.20;99.90
21551;DHT22;10936;49.836;7.078;2022-10-18T15:13:25;22.20;99.90
21551;DHT22;10936;49.836;7.078;2022-10-18T15:15:51;22.20;99.90
21551;DHT22;10936;49.836;7.078;2022-10-18T15:18:22;22.20;99.90
21551;DHT22;10936;49.836;7.078;2022-10-18T15:21:21;22.20;99.90
21551;DHT22;10936;49.836;7.078;2022-10-18T15:23:47;22.20;99.90
21551;DHT22;10936;49.836;7.078;2022-10-18T15:26:19;22.30;99.90
21551;DHT22;10936;49.836;7.078;2022-10-18T15:28:49;22.30;99.90
21551;DHT22;10936;49.836;7.078;2022-10-18T15:31:34;22.30;99.90
21551;DHT22;10936;49.836;7.078;2022-10-18T15:34:22;22.30;99.90
21551;DHT22;10936;49.836;7.078;2022-10-18T15:36:49;22.30;99.90
21551;DHT22;10936;49.836;7.078;2022-10-18T15:39:27;22.30;99.90
21551;DHT22;10936;49.836;7.078;2022-10-18T15:41:59;22.30;99.90
21551;DHT22;10936;49.836;7.078;2022-10-18T15:49:57;22.30;99.90
21551;DHT22;10936;49.836;7.078;2022-10-18T15:54:57;22.30;99.90
21551;DHT22;10936;49.836;7.078;2022-10-18T15:57:23;22.20;99.90
21551;DHT22;10936;49.836;7.078;2022-10-18T15:59:57;22.20;99.90
21551;DHT22;10936;49.836;7.078;2022-10-18T16:02:24;22.20;99.90
21551;DHT22;10936;49.836;7.078;2022-10-18T16:04:50;22.20;99.90
21551;DHT22;10936;49.836;7.078;2022-10-18T16:07:16;22.20;99.90
21551;DHT22;10936;49.836;7.078;2022-10-18T16:09:42;22.20;99.90
21551;DHT22;10936;49.836;7.078;2022-10-18T16:12:07;22.20;99.90
21551;DHT22;10936;49.836;7.078;2022-10-18T16:14:33;22.20;99.90
21551;DHT22;10936;49.836;7.078;2022-10-18T16:17:02;22.20;99.90
21551;DHT22;10936;49.836;7.078;2022-10-18T16:19:29;22.20;99.90
21551;DHT22;10936;49.836;7.078;2022-10-18T16:21:55;22.20;99.90
21551;DHT22;10936;49.836;7.078;2022-10-18T16:24:21;22.20;99.90
21551;DHT22;10936;49.836;7.078;2022-10-18T16:26:47;22.20;99.90
21551;DHT22;10936;49.836;7.078;2022-10-18T16:29:19;22.20;99.90
21551;DHT22;10936;49.836;7.078;2022-10-18T16:31:56;22.20;99.90
21551;DHT22;10936;49.836;7.078;2022-10-18T16:34:23;22.20;99.90
21551;DHT22;10936;49.836;7.078;2022-10-18T16:36:51;22.20;99.90
21551;DHT22;10936;49.836;7.078;2022-10-18T16:39:18;22.20;99.90
21551;DHT22;10936;49.836;7.078;2022-10-18T16:41:45;22.20;99.90
21551;DHT22;10936;49.836;7.078;2022-10-18T16:44:11;22.20;99.90
21551;DHT22;10936;49.836;7.078;2022-10-18T16:46:37;22.20;99.90
21551;DHT22;10936;49.836;7.078;2022-10-18T16:49:03;22.20;99.90
21551;DHT22;10936;49.836;7.078;2022-10-18T16:51:29;22.20;99.90
21551;DHT22;10936;49.836;7.078;2022-10-18T16:53:55;22.20;99.90
21551;DHT22;10936;49.836;7.078;2022-10-18T16:56:23;22.20;99.90
21551;DHT22;10936;49.836;7.078;2022-10-18T16:58:49;22.20;99.90
21551;DHT22;10936;49.836;7.078;2022-10-18T17:01:17;22.20;99.90
21551;DHT22;10936;49.836;7.078;2022-10-18T17:03:44;22.20;99.90
21551;DHT22;10936;49.836;7.078;2022-10-18T17:06:16;22.20;99.90
21551;DHT22;10936;49.836;7.078;2022-10-18T17:08:43;22.20;99.90
21551;DHT22;10936;49.836;7.078;2022-10-18T17:11:10;22.20;99.90
21551;DHT22;10936;49.836;7.078;2022-10-18T17:13:36;22.20;99.90
21551;DHT22;10936;49.836;7.078;2022-10-18T17:16:02;22.20;99.90
21551;DHT22;10936;49.836;7.078;2022-10-18T17:18:29;22.20;99.90
21551;DHT22;10936;49.836;7.078;2022-10-18T17:20:58;22.20;99.90
21551;DHT22;10936;49.836;7.078;2022-10-18T17:23:27;22.20;99.90
21551;DHT22;10936;49.836;7.078;2022-10-18T17:25:53;22.20;99.90
21551;DHT22;10936;49.836;7.078;2022-10-18T17:28:19;22.20;99.90
21551;DHT22;10936;49.836;7.078;2022-10-18T17:30:46;22.20;99.90
21551;DHT22;10936;49.836;7.078;2022-10-18T17:33:12;22.10;99.90
21551;DHT22;10936;49.836;7.078;2022-10-18T17:35:39;22.10;99.90
21551;DHT22;10936;49.836;7.078;2022-10-18T17:38:05;22.10;99.90
21551;DHT22;10936;49.836;7.078;2022-10-18T17:40:31;22.10;99.90
21551;DHT22;10936;49.836;7.078;2022-10-18T17:42:57;22.10;99.90
21551;DHT22;10936;49.836;7.078;2022-10-18T17:45:23;22.10;99.90
21551;DHT22;10936;49.836;7.078;2022-10-18T17:47:49;22.10;99.90
21551;DHT22;10936;49.836;7.078;2022-10-18T17:50:15;22.10;99.90
21551;DHT22;10936;49.836;7.078;2022-10-18T17:52:42;22.10;99.90
21551;DHT22;10936;49.836;7.078;2022-10-18T17:55:09;22.10;99.90
21551;DHT22;10936;49.836;7.078;2022-10-18T17:57:35;22.10;99.90
21551;DHT22;10936;49.836;7.078;2022-10-18T18:00:01;22.10;99.90
21551;DHT22;10936;49.836;7.078;2022-10-18T18:02:27;22.10;99.90
21551;DHT22;10936;49.836;7.078;2022-10-18T18:04:53;22.10;99.90
21551;DHT22;10936;49.836;7.078;2022-10-18T18:07:19;22.10;99.90
21551;DHT22;10936;49.836;7.078;2022-10-18T18:09:45;22.00;99.90
21551;DHT22;10936;49.836;7.078;2022-10-18T18:12:11;22.00;99.90
21551;DHT22;10936;49.836;7.078;2022-10-18T18:14:36;22.00;99.90
21551;DHT22;10936;49.836;7.078;2022-10-18T18:17:02;22.00;99.90
21551;DHT22;10936;49.836;7.078;2022-10-18T18:19:28;22.00;99.90
21551;DHT22;10936;49.836;7.078;2022-10-18T18:21:53;22.00;99.90
21551;DHT22;10936;49.836;7.078;2022-10-18T18:24:20;22.00;99.90
21551;DHT22;10936;49.836;7.078;2022-10-18T18:26:52;22.00;99.90
21551;DHT22;10936;49.836;7.078;2022-10-18T18:29:22;22.00;99.90
21551;DHT22;10936;49.836;7.078;2022-10-18T18:31:49;22.00;99.90
21551;DHT22;10936;49.836;7.078;2022-10-18T18:34:15;22.00;99.90
21551;DHT22;10936;49.836;7.078;2022-10-18T18:36:41;22.00;99.90
21551;DHT22;10936;49.836;7.078;2022-10-18T18:39:09;22.00;99.90
21551;DHT22;10936;49.836;7.078;2022-10-18T18:41:40;22.00;99.90
21551;DHT22;10936;49.836;7.078;2022-10-18T18:44:06;22.00;99.90
21551;DHT22;10936;49.836;7.078;2022-10-18T18:46:34;22.00;99.90
21551;DHT22;10936;49.836;7.078;2022-10-18T18:49:04;22.00;99.90
21551;DHT22;10936;49.836;7.078;2022-10-18T18:51:31;22.00;99.90
21551;DHT22;10936;49.836;7.078;2022-10-18T18:53:58;22.00;99.90
21551;DHT22;10936;49.836;7.078;2022-10-18T18:56:25;22.00;99.90
21551;DHT22;10936;49.836;7.078;2022-10-18T18:58:52;22.00;99.90
21551;DHT22;10936;49.836;7.078;2022-10-18T19:01:20;21.90;99.90
21551;DHT22;10936;49.836;7.078;2022-10-18T19:03:49;22.00;99.90
21551;DHT22;10936;49.836;7.078;2022-10-18T19:06:21;22.00;99.90
21551;DHT22;10936;49.836;7.078;2022-10-18T19:08:47;22.00;99.90
21551;DHT22;10936;49.836;7.078;2022-10-18T19:11:18;21.90;99.90
21551;DHT22;10936;49.836;7.078;2022-10-18T19:13:45;21.90;99.90
21551;DHT22;10936;49.836;7.078;2022-10-18T19:16:27;21.90;99.90
21551;DHT22;10936;49.836;7.078;2022-10-18T19:21:48;21.90;99.90
21551;DHT22;10936;49.836;7.078;2022-10-18T19:24:15;21.90;99.90
21551;DHT22;10936;49.836;7.078;2022-10-18T19:26:56;21.90;99.90
21551;DHT22;10936;49.836;7.078;2022-10-18T19:29:24;21.90;99.90
21551;DHT22;10936;49.836;7.078;2022-10-18T19:31:51;21.90;99.90
21551;DHT22;10936;49.836;7.078;2022-10-18T19:34:18;21.90;99.90
21551;DHT22;10936;49.836;7.078;2022-10-18T19:36:46;21.90;99.90
21551;DHT22;10936;49.836;7.078;2022-10-18T19:39:24;21.90;99.90
21551;DHT22;10936;49.836;7.078;2022-10-18T19:41:52;21.90;99.90
21551;DHT22;10936;49.836;7.078;2022-10-18T19:44:19;21.90;99.90
21551;DHT22;10936;49.836;7.078;2022-10-18T19:46:46;21.90;99.90
21551;DHT22;10936;49.836;7.078;2022-10-18T19:49:12;21.90;99.90
21551;DHT22;10936;49.836;7.078;2022-10-18T19:51:38;21.90;99.90
21551;DHT22;10936;49.836;7.078;2022-10-18T19:54:04;21.90;99.90
21551;DHT22;10936;49.836;7.078;2022-10-18T19:56:29;21.90;99.90
21551;DHT22;10936;49.836;7.078;2022-10-18T19:58:57;21.90;99.90
21551;DHT22;10936;49.836;7.078;2022-10-18T20:01:24;21.90;99.90
21551;DHT22;10936;49.836;7.078;2022-10-18T20:03:51;21.90;99.90
21551;DHT22;10936;49.836;7.078;2022-10-18T20:06:16;21.90;99.90
21551;DHT22;10936;49.836;7.078;2022-10-18T20:08:42;21.90;99.90
21551;DHT22;10936;49.836;7.078;2022-10-18T20:11:11;21.90;99.90
21551;DHT22;10936;49.836;7.078;2022-10-18T20:13:37;21.90;99.90
21551;DHT22;10936;49.836;7.078;2022-10-18T20:16:05;21.90;99.90
21551;DHT22;10936;49.836;7.078;2022-10-18T20:18:31;21.90;99.90
21551;DHT22;10936;49.836;7.078;2022-10-18T20:20:58;21.90;99.90
21551;DHT22;10936;49.836;7.078;2022-10-18T20:23:23;21.90;99.90
21551;DHT22;10936;49.836;7.078;2022-10-18T20:28:21;21.90;99.90
21551;DHT22;10936;49.836;7.078;2022-10-18T20:30:48;21.80;99.90
21551;DHT22;10936;49.836;7.078;2022-10-18T20:33:22;21.80;99.90
21551;DHT22;10936;49.836;7.078;2022-10-18T20:35:48;21.80;99.90
21551;DHT22;10936;49.836;7.078;2022-10-18T20:38:14;21.80;99.90
21551;DHT22;10936;49.836;7.078;2022-10-18T20:40:39;21.80;99.90
21551;DHT22;10936;49.836;7.078;2022-10-18T20:43:05;21.80;99.90
21551;DHT22;10936;49.836;7.078;2022-10-18T20:45:31;21.90;99.90
21551;DHT22;10936;49.836;7.078;2022-10-18T20:47:56;21.80;99.90
21551;DHT22;10936;49.836;7.078;2022-10-18T20:50:22;21.80;99.90
21551;DHT22;10936;49.836;7.078;2022-10-18T20:52:47;21.80;99.90
21551;DHT22;10936;49.836;7.078;2022-10-18T20:55:16;21.80;99.90
21551;DHT22;10936;49.836;7.078;2022-10-18T20:57:41;21.80;99.90
21551;DHT22;10936;49.836;7.078;2022-10-18T21:00:07;21.80;99.90
21551;DHT22;10936;49.836;7.078;2022-10-18T21:02:36;21.80;99.90
21551;DHT22;10936;49.836;7.078;2022-10-18T21:05:01;21.80;99.90
21551;DHT22;10936;49.836;7.078;2022-10-18T21:07:28;21.80;99.90
21551;DHT22;10936;49.836;7.078;2022-10-18T21:09:53;21.80;99.90
21551;DHT22;10936;49.836;7.078;2022-10-18T21:12:19;21.80;99.90
21551;DHT22;10936;49.836;7.078;2022-10-18T21:14:45;21.80;99.90
21551;DHT22;10936;49.836;7.078;2022-10-18T21:17:10;21.80;99.90
21551;DHT22;10936;49.836;7.078;2022-10-18T21:19:36;21.80;99.90
21551;DHT22;10936;49.836;7.078;2022-10-18T21:22:02;21.80;99.90
21551;DHT22;10936;49.836;7.078;2022-10-18T21:24:27;21.80;99.90
21551;DHT22;10936;49.836;7.078;2022-10-18T21:26:54;21.80;99.90
21551;DHT22;10936;49.836;7.078;2022-10-18T21:29:21;21.80;99.90
